sensor_id;sensor_type;location;lat;lon;timestamp;P1;durP1;ratioP1;P2;durP2;ratioP2
7773;SDS011;3931;42.260;23.116;2023-04-24T00:00:54;14.50;;;9.33;;
7773;SDS011;3931;42.260;23.116;2023-04-24T00:03:21;17.07;;;9.80;;
7773;SDS011;3931;42.260;23.116;2023-04-24T00:05:47;11.77;;;9.10;;
7773;SDS011;3931;42.260;23.116;2023-04-24T00:08:13;15.53;;;9.27;;
7773;SDS011;3931;42.260;23.116;2023-04-24T00:10:38;11.57;;;8.57;;
7773;SDS011;3931;42.260;23.116;2023-04-24T00:13:04;13.97;;;8.63;;
7773;SDS011;3931;42.260;23.116;2023-04-24T00:15:30;15.10;;;9.47;;
7773;SDS011;3931;42.260;23.116;2023-04-24T00:17:57;17.47;;;9.80;;
7773;SDS011;3931;42.260;23.116;2023-04-24T00:20:23;15.17;;;9.20;;
7773;SDS011;3931;42.260;23.116;2023-04-24T00:22:48;14.80;;;9.10;;
7773;SDS011;3931;42.260;23.116;2023-04-24T00:25:14;14.33;;;8.50;;
7773;SDS011;3931;42.260;23.116;2023-04-24T00:27:40;12.83;;;9.10;;
7773;SDS011;3931;42.260;23.116;2023-04-24T00:30:06;13.20;;;8.40;;
7773;SDS011;3931;42.260;23.116;2023-04-24T00:32:32;16.10;;;8.77;;
7773;SDS011;3931;42.260;23.116;2023-04-24T00:34:59;12.20;;;7.40;;
7773;SDS011;3931;42.260;23.116;2023-04-24T00:37:24;19.30;;;8.20;;
7773;SDS011;3931;42.260;23.116;2023-04-24T00:39:50;20.93;;;8.50;;
7773;SDS011;3931;42.260;23.116;2023-04-24T00:42:16;13.47;;;8.47;;
7773;SDS011;3931;42.260;23.116;2023-04-24T00:44:42;14.70;;;8.70;;
7773;SDS011;3931;42.260;23.116;2023-04-24T00:47:07;16.43;;;7.70;;
7773;SDS011;3931;42.260;23.116;2023-04-24T00:49:33;12.13;;;8.27;;
7773;SDS011;3931;42.260;23.116;2023-04-24T00:52:00;14.50;;;8.70;;
7773;SDS011;3931;42.260;23.116;2023-04-24T00:54:26;14.80;;;9.30;;
7773;SDS011;3931;42.260;23.116;2023-04-24T00:56:51;17.20;;;8.93;;
7773;SDS011;3931;42.260;23.116;2023-04-24T00:59:17;19.83;;;8.13;;
7773;SDS011;3931;42.260;23.116;2023-04-24T01:01:43;10.40;;;8.27;;
7773;SDS011;3931;42.260;23.116;2023-04-24T01:04:10;16.03;;;8.37;;
7773;SDS011;3931;42.260;23.116;2023-04-24T01:06:36;21.40;;;8.20;;
7773;SDS011;3931;42.260;23.116;2023-04-24T01:09:04;15.67;;;9.47;;
7773;SDS011;3931;42.260;23.116;2023-04-24T01:11:30;16.57;;;9.50;;
7773;SDS011;3931;42.260;23.116;2023-04-24T01:13:56;14.43;;;9.37;;
7773;SDS011;3931;42.260;23.116;2023-04-24T01:16:22;9.87;;;7.90;;
7773;SDS011;3931;42.260;23.116;2023-04-24T01:18:48;13.83;;;8.27;;
7773;SDS011;3931;42.260;23.116;2023-04-24T01:21:14;20.87;;;8.03;;
7773;SDS011;3931;42.260;23.116;2023-04-24T01:23:42;11.70;;;8.37;;
7773;SDS011;3931;42.260;23.116;2023-04-24T01:26:08;11.90;;;8.70;;
7773;SDS011;3931;42.260;23.116;2023-04-24T01:28:33;11.40;;;8.20;;
7773;SDS011;3931;42.260;23.116;2023-04-24T01:30:59;15.77;;;9.10;;
7773;SDS011;3931;42.260;23.116;2023-04-24T01:33:25;12.00;;;8.87;;
7773;SDS011;3931;42.260;23.116;2023-04-24T01:35:51;15.73;;;8.60;;
7773;SDS011;3931;42.260;23.116;2023-04-24T01:38:17;10.73;;;8.10;;
7773;SDS011;3931;42.260;23.116;2023-04-24T01:40:43;15.03;;;9.57;;
7773;SDS011;3931;42.260;23.116;2023-04-24T01:43:10;13.40;;;8.73;;
7773;SDS011;3931;42.260;23.116;2023-04-24T01:45:36;12.63;;;9.37;;
7773;SDS011;3931;42.260;23.116;2023-04-24T01:48:01;14.70;;;9.50;;
7773;SDS011;3931;42.260;23.116;2023-04-24T01:50:27;13.60;;;9.63;;
7773;SDS011;3931;42.260;23.116;2023-04-24T01:52:53;12.57;;;8.00;;
7773;SDS011;3931;42.260;23.116;2023-04-24T01:55:19;12.43;;;8.80;;
7773;SDS011;3931;42.260;23.116;2023-04-24T01:57:45;17.43;;;8.53;;
7773;SDS011;3931;42.260;23.116;2023-04-24T02:00:11;11.73;;;8.47;;
7773;SDS011;3931;42.260;23.116;2023-04-24T02:02:37;16.80;;;8.30;;
7773;SDS011;3931;42.260;23.116;2023-04-24T02:05:05;10.47;;;8.10;;
7773;SDS011;3931;42.260;23.116;2023-04-24T02:07:31;11.37;;;7.70;;
7773;SDS011;3931;42.260;23.116;2023-04-24T02:09:57;12.10;;;8.93;;
7773;SDS011;3931;42.260;23.116;2023-04-24T02:12:23;13.87;;;9.60;;
7773;SDS011;3931;42.260;23.116;2023-04-24T02:14:50;15.03;;;9.20;;
7773;SDS011;3931;42.260;23.116;2023-04-24T02:17:15;14.23;;;10.70;;
7773;SDS011;3931;42.260;23.116;2023-04-24T02:19:41;12.03;;;8.40;;
7773;SDS011;3931;42.260;23.116;2023-04-24T02:22:07;12.97;;;8.70;;
7773;SDS011;3931;42.260;23.116;2023-04-24T02:24:33;19.40;;;9.63;;
7773;SDS011;3931;42.260;23.116;2023-04-24T02:26:59;10.60;;;9.47;;
7773;SDS011;3931;42.260;23.116;2023-04-24T02:29:25;15.83;;;9.10;;
7773;SDS011;3931;42.260;23.116;2023-04-24T02:31:51;11.20;;;9.10;;
7773;SDS011;3931;42.260;23.116;2023-04-24T02:34:17;14.10;;;9.37;;
7773;SDS011;3931;42.260;23.116;2023-04-24T02:36:43;13.87;;;9.57;;
7773;SDS011;3931;42.260;23.116;2023-04-24T02:39:08;12.13;;;9.10;;
7773;SDS011;3931;42.260;23.116;2023-04-24T02:41:34;14.00;;;7.37;;
7773;SDS011;3931;42.260;23.116;2023-04-24T02:44:00;14.70;;;8.90;;
7773;SDS011;3931;42.260;23.116;2023-04-24T02:46:26;12.77;;;9.10;;
7773;SDS011;3931;42.260;23.116;2023-04-24T02:48:52;15.87;;;9.20;;
7773;SDS011;3931;42.260;23.116;2023-04-24T02:51:18;11.20;;;8.30;;
7773;SDS011;3931;42.260;23.116;2023-04-24T02:53:44;16.33;;;9.93;;
7773;SDS011;3931;42.260;23.116;2023-04-24T02:56:09;12.23;;;9.60;;
7773;SDS011;3931;42.260;23.116;2023-04-24T02:58:37;9.60;;;8.60;;
7773;SDS011;3931;42.260;23.116;2023-04-24T03:01:03;12.90;;;9.00;;
7773;SDS011;3931;42.260;23.116;2023-04-24T03:03:28;18.53;;;8.20;;
7773;SDS011;3931;42.260;23.116;2023-04-24T03:05:55;19.40;;;9.10;;
7773;SDS011;3931;42.260;23.116;2023-04-24T03:08:22;12.67;;;9.17;;
7773;SDS011;3931;42.260;23.116;2023-04-24T03:10:47;12.00;;;9.17;;
7773;SDS011;3931;42.260;23.116;2023-04-24T03:13:13;13.30;;;10.67;;
7773;SDS011;3931;42.260;23.116;2023-04-24T03:15:39;15.00;;;10.43;;
7773;SDS011;3931;42.260;23.116;2023-04-24T03:18:05;28.40;;;9.77;;
7773;SDS011;3931;42.260;23.116;2023-04-24T03:20:30;12.60;;;9.40;;
7773;SDS011;3931;42.260;23.116;2023-04-24T03:22:57;10.77;;;9.20;;
7773;SDS011;3931;42.260;23.116;2023-04-24T03:25:23;16.07;;;10.37;;
7773;SDS011;3931;42.260;23.116;2023-04-24T03:27:48;16.83;;;12.10;;
7773;SDS011;3931;42.260;23.116;2023-04-24T03:30:14;21.00;;;11.30;;
7773;SDS011;3931;42.260;23.116;2023-04-24T03:32:40;17.67;;;11.17;;
7773;SDS011;3931;42.260;23.116;2023-04-24T03:35:06;14.40;;;10.87;;
7773;SDS011;3931;42.260;23.116;2023-04-24T03:37:32;17.93;;;10.80;;
7773;SDS011;3931;42.260;23.116;2023-04-24T03:39:59;18.77;;;11.03;;
7773;SDS011;3931;42.260;23.116;2023-04-24T03:42:24;14.73;;;10.90;;
7773;SDS011;3931;42.260;23.116;2023-04-24T03:44:50;20.43;;;12.10;;
7773;SDS011;3931;42.260;23.116;2023-04-24T03:47:16;21.50;;;13.10;;
7773;SDS011;3931;42.260;23.116;2023-04-24T03:49:42;24.47;;;12.57;;
7773;SDS011;3931;42.260;23.116;2023-04-24T03:52:07;14.60;;;10.80;;
7773;SDS011;3931;42.260;23.116;2023-04-24T03:54:33;19.97;;;11.50;;
7773;SDS011;3931;42.260;23.116;2023-04-24T03:56:59;13.87;;;11.10;;
7773;SDS011;3931;42.260;23.116;2023-04-24T03:59:26;14.67;;;10.53;;
7773;SDS011;3931;42.260;23.116;2023-04-24T04:01:52;15.00;;;11.40;;
7773;SDS011;3931;42.260;23.116;2023-04-24T04:04:18;20.90;;;11.30;;
7773;SDS011;3931;42.260;23.116;2023-04-24T04:06:43;13.63;;;11.70;;
7773;SDS011;3931;42.260;23.116;2023-04-24T04:09:09;12.60;;;10.40;;
7773;SDS011;3931;42.260;23.116;2023-04-24T04:11:35;14.50;;;9.70;;
7773;SDS011;3931;42.260;23.116;2023-04-24T04:14:01;17.50;;;11.60;;
7773;SDS011;3931;42.260;23.116;2023-04-24T04:16:27;27.73;;;13.10;;
7773;SDS011;3931;42.260;23.116;2023-04-24T04:18:53;14.20;;;11.27;;
7773;SDS011;3931;42.260;23.116;2023-04-24T04:21:19;40.17;;;12.37;;
7773;SDS011;3931;42.260;23.116;2023-04-24T04:23:44;22.73;;;11.43;;
7773;SDS011;3931;42.260;23.116;2023-04-24T04:26:10;18.67;;;12.53;;
7773;SDS011;3931;42.260;23.116;2023-04-24T04:28:37;26.83;;;11.50;;
7773;SDS011;3931;42.260;23.116;2023-04-24T04:31:04;118.23;;;15.83;;
7773;SDS011;3931;42.260;23.116;2023-04-24T04:33:30;19.60;;;12.83;;
7773;SDS011;3931;42.260;23.116;2023-04-24T04:35:56;32.40;;;12.70;;
7773;SDS011;3931;42.260;23.116;2023-04-24T04:38:22;26.10;;;14.50;;
7773;SDS011;3931;42.260;23.116;2023-04-24T04:40:48;20.17;;;13.60;;
7773;SDS011;3931;42.260;23.116;2023-04-24T04:43:14;27.30;;;15.20;;
7773;SDS011;3931;42.260;23.116;2023-04-24T04:45:41;18.50;;;11.60;;
7773;SDS011;3931;42.260;23.116;2023-04-24T04:48:08;23.57;;;13.97;;
7773;SDS011;3931;42.260;23.116;2023-04-24T04:50:34;59.87;;;17.20;;
7773;SDS011;3931;42.260;23.116;2023-04-24T04:53:00;28.57;;;13.60;;
7773;SDS011;3931;42.260;23.116;2023-04-24T04:55:26;96.17;;;16.67;;
7773;SDS011;3931;42.260;23.116;2023-04-24T04:57:51;56.27;;;15.17;;
7773;SDS011;3931;42.260;23.116;2023-04-24T05:00:17;41.33;;;12.77;;
7773;SDS011;3931;42.260;23.116;2023-04-24T05:02:43;26.77;;;14.53;;
7773;SDS011;3931;42.260;23.116;2023-04-24T05:05:09;36.17;;;15.87;;
7773;SDS011;3931;42.260;23.116;2023-04-24T05:07:35;32.40;;;21.47;;
7773;SDS011;3931;42.260;23.116;2023-04-24T05:10:01;27.63;;;17.27;;
7773;SDS011;3931;42.260;23.116;2023-04-24T05:12:27;27.73;;;14.90;;
7773;SDS011;3931;42.260;23.116;2023-04-24T05:14:53;65.43;;;16.40;;
7773;SDS011;3931;42.260;23.116;2023-04-24T05:17:18;43.70;;;15.87;;
7773;SDS011;3931;42.260;23.116;2023-04-24T05:19:44;45.87;;;13.20;;
7773;SDS011;3931;42.260;23.116;2023-04-24T05:22:12;21.27;;;12.40;;
7773;SDS011;3931;42.260;23.116;2023-04-24T05:24:37;17.70;;;11.70;;
7773;SDS011;3931;42.260;23.116;2023-04-24T05:27:03;23.70;;;11.60;;
7773;SDS011;3931;42.260;23.116;2023-04-24T05:29:30;28.43;;;11.20;;
7773;SDS011;3931;42.260;23.116;2023-04-24T05:31:56;82.27;;;15.17;;
7773;SDS011;3931;42.260;23.116;2023-04-24T05:34:22;13.90;;;11.33;;
7773;SDS011;3931;42.260;23.116;2023-04-24T05:36:48;14.13;;;9.00;;
7773;SDS011;3931;42.260;23.116;2023-04-24T05:39:14;49.20;;;9.93;;
7773;SDS011;3931;42.260;23.116;2023-04-24T05:41:40;15.47;;;8.77;;
7773;SDS011;3931;42.260;23.116;2023-04-24T05:44:06;40.07;;;8.77;;
7773;SDS011;3931;42.260;23.116;2023-04-24T05:46:32;153.57;;;13.40;;
7773;SDS011;3931;42.260;23.116;2023-04-24T05:48:57;12.83;;;8.10;;
7773;SDS011;3931;42.260;23.116;2023-04-24T05:51:23;23.00;;;8.90;;
7773;SDS011;3931;42.260;23.116;2023-04-24T05:53:49;12.53;;;7.80;;
7773;SDS011;3931;42.260;23.116;2023-04-24T05:56:15;14.53;;;7.80;;
7773;SDS011;3931;42.260;23.116;2023-04-24T05:58:41;13.03;;;7.43;;
7773;SDS011;3931;42.260;23.116;2023-04-24T06:01:07;13.43;;;7.57;;
7773;SDS011;3931;42.260;23.116;2023-04-24T06:03:33;9.30;;;7.10;;
7773;SDS011;3931;42.260;23.116;2023-04-24T06:05:58;11.93;;;7.23;;
7773;SDS011;3931;42.260;23.116;2023-04-24T06:08:24;100.57;;;9.60;;
7773;SDS011;3931;42.260;23.116;2023-04-24T06:10:51;21.30;;;7.80;;
7773;SDS011;3931;42.260;23.116;2023-04-24T06:13:17;56.13;;;9.63;;
7773;SDS011;3931;42.260;23.116;2023-04-24T06:15:43;19.30;;;6.87;;
7773;SDS011;3931;42.260;23.116;2023-04-24T06:18:09;26.70;;;7.10;;
7773;SDS011;3931;42.260;23.116;2023-04-24T06:20:35;25.13;;;7.00;;
7773;SDS011;3931;42.260;23.116;2023-04-24T06:23:01;8.07;;;6.23;;
7773;SDS011;3931;42.260;23.116;2023-04-24T06:25:27;18.80;;;7.07;;
7773;SDS011;3931;42.260;23.116;2023-04-24T06:27:53;10.50;;;6.80;;
7773;SDS011;3931;42.260;23.116;2023-04-24T06:30:20;19.30;;;7.20;;
7773;SDS011;3931;42.260;23.116;2023-04-24T06:32:45;42.60;;;7.17;;
7773;SDS011;3931;42.260;23.116;2023-04-24T06:35:11;14.43;;;6.90;;
7773;SDS011;3931;42.260;23.116;2023-04-24T06:37:37;12.40;;;7.17;;
7773;SDS011;3931;42.260;23.116;2023-04-24T06:40:04;7.60;;;5.93;;
7773;SDS011;3931;42.260;23.116;2023-04-24T06:42:30;11.93;;;6.07;;
7773;SDS011;3931;42.260;23.116;2023-04-24T06:44:56;21.57;;;5.70;;
7773;SDS011;3931;42.260;23.116;2023-04-24T06:47:23;32.60;;;6.70;;
7773;SDS011;3931;42.260;23.116;2023-04-24T06:49:48;26.93;;;6.03;;
7773;SDS011;3931;42.260;23.116;2023-04-24T06:52:16;8.63;;;5.50;;
7773;SDS011;3931;42.260;23.116;2023-04-24T06:54:41;18.70;;;5.87;;
7773;SDS011;3931;42.260;23.116;2023-04-24T06:57:08;19.20;;;8.03;;
7773;SDS011;3931;42.260;23.116;2023-04-24T06:59:33;43.63;;;7.50;;
7773;SDS011;3931;42.260;23.116;2023-04-24T07:01:59;54.40;;;6.93;;
7773;SDS011;3931;42.260;23.116;2023-04-24T07:04:26;17.50;;;6.10;;
7773;SDS011;3931;42.260;23.116;2023-04-24T07:06:52;21.63;;;5.70;;
7773;SDS011;3931;42.260;23.116;2023-04-24T07:09:19;15.97;;;5.03;;
7773;SDS011;3931;42.260;23.116;2023-04-24T07:11:45;11.83;;;5.27;;
7773;SDS011;3931;42.260;23.116;2023-04-24T07:14:11;23.20;;;5.63;;
7773;SDS011;3931;42.260;23.116;2023-04-24T07:16:37;23.77;;;6.23;;
7773;SDS011;3931;42.260;23.116;2023-04-24T07:19:02;10.70;;;5.57;;
7773;SDS011;3931;42.260;23.116;2023-04-24T07:21:29;12.60;;;5.13;;
7773;SDS011;3931;42.260;23.116;2023-04-24T07:23:56;25.77;;;6.50;;
7773;SDS011;3931;42.260;23.116;2023-04-24T07:26:22;43.90;;;8.07;;
7773;SDS011;3931;42.260;23.116;2023-04-24T07:28:47;23.43;;;6.27;;
7773;SDS011;3931;42.260;23.116;2023-04-24T07:31:13;16.40;;;5.43;;
7773;SDS011;3931;42.260;23.116;2023-04-24T07:33:39;13.77;;;4.67;;
7773;SDS011;3931;42.260;23.116;2023-04-24T07:36:05;15.30;;;5.10;;
7773;SDS011;3931;42.260;23.116;2023-04-24T07:38:31;12.87;;;7.13;;
7773;SDS011;3931;42.260;23.116;2023-04-24T07:40:57;18.20;;;6.47;;
7773;SDS011;3931;42.260;23.116;2023-04-24T07:43:23;8.73;;;5.30;;
7773;SDS011;3931;42.260;23.116;2023-04-24T07:45:49;16.10;;;8.27;;
7773;SDS011;3931;42.260;23.116;2023-04-24T07:48:15;10.30;;;5.47;;
7773;SDS011;3931;42.260;23.116;2023-04-24T07:50:41;13.87;;;5.40;;
7773;SDS011;3931;42.260;23.116;2023-04-24T07:53:07;4.83;;;4.27;;
7773;SDS011;3931;42.260;23.116;2023-04-24T07:55:33;9.93;;;4.70;;
7773;SDS011;3931;42.260;23.116;2023-04-24T07:57:59;8.97;;;4.60;;
7773;SDS011;3931;42.260;23.116;2023-04-24T08:00:25;14.33;;;4.90;;
7773;SDS011;3931;42.260;23.116;2023-04-24T08:02:50;11.03;;;4.40;;
7773;SDS011;3931;42.260;23.116;2023-04-24T08:05:16;39.47;;;4.70;;
7773;SDS011;3931;42.260;23.116;2023-04-24T08:07:42;10.40;;;4.10;;
7773;SDS011;3931;42.260;23.116;2023-04-24T08:10:09;12.83;;;5.20;;
7773;SDS011;3931;42.260;23.116;2023-04-24T08:12:36;15.03;;;4.27;;
7773;SDS011;3931;42.260;23.116;2023-04-24T08:15:02;6.63;;;4.00;;
7773;SDS011;3931;42.260;23.116;2023-04-24T08:17:28;10.77;;;5.50;;
7773;SDS011;3931;42.260;23.116;2023-04-24T08:19:54;6.67;;;4.23;;
7773;SDS011;3931;42.260;23.116;2023-04-24T08:22:26;14.33;;;5.00;;
7773;SDS011;3931;42.260;23.116;2023-04-24T08:24:52;5.40;;;3.93;;
7773;SDS011;3931;42.260;23.116;2023-04-24T08:27:18;6.80;;;4.80;;
7773;SDS011;3931;42.260;23.116;2023-04-24T08:29:44;6.40;;;4.63;;
7773;SDS011;3931;42.260;23.116;2023-04-24T08:32:10;22.47;;;4.73;;
7773;SDS011;3931;42.260;23.116;2023-04-24T08:34:36;6.70;;;4.33;;
7773;SDS011;3931;42.260;23.116;2023-04-24T08:37:02;10.33;;;4.50;;
7773;SDS011;3931;42.260;23.116;2023-04-24T08:39:27;34.73;;;5.60;;
7773;SDS011;3931;42.260;23.116;2023-04-24T08:41:54;7.17;;;5.10;;
7773;SDS011;3931;42.260;23.116;2023-04-24T08:44:20;20.60;;;5.20;;
7773;SDS011;3931;42.260;23.116;2023-04-24T08:46:47;11.87;;;4.77;;
7773;SDS011;3931;42.260;23.116;2023-04-24T08:49:13;14.97;;;6.27;;
7773;SDS011;3931;42.260;23.116;2023-04-24T08:51:41;8.40;;;5.37;;
7773;SDS011;3931;42.260;23.116;2023-04-24T08:54:07;8.23;;;4.20;;
7773;SDS011;3931;42.260;23.116;2023-04-24T08:56:33;13.27;;;4.90;;
7773;SDS011;3931;42.260;23.116;2023-04-24T08:58:58;10.97;;;5.23;;
7773;SDS011;3931;42.260;23.116;2023-04-24T09:01:24;12.70;;;5.20;;
7773;SDS011;3931;42.260;23.116;2023-04-24T09:03:51;29.83;;;5.03;;
7773;SDS011;3931;42.260;23.116;2023-04-24T09:06:18;5.33;;;4.00;;
7773;SDS011;3931;42.260;23.116;2023-04-24T09:08:45;25.87;;;3.77;;
7773;SDS011;3931;42.260;23.116;2023-04-24T09:11:10;11.03;;;4.20;;
7773;SDS011;3931;42.260;23.116;2023-04-24T09:13:37;8.80;;;4.20;;
7773;SDS011;3931;42.260;23.116;2023-04-24T09:16:03;11.97;;;3.30;;
7773;SDS011;3931;42.260;23.116;2023-04-24T09:18:28;7.80;;;4.27;;
7773;SDS011;3931;42.260;23.116;2023-04-24T09:20:58;7.27;;;4.70;;
7773;SDS011;3931;42.260;23.116;2023-04-24T09:23:25;19.77;;;4.60;;
7773;SDS011;3931;42.260;23.116;2023-04-24T09:25:53;36.57;;;5.60;;
7773;SDS011;3931;42.260;23.116;2023-04-24T09:28:20;27.40;;;4.30;;
7773;SDS011;3931;42.260;23.116;2023-04-24T09:30:54;7.37;;;4.10;;
7773;SDS011;3931;42.260;23.116;2023-04-24T09:33:27;17.20;;;4.37;;
7773;SDS011;3931;42.260;23.116;2023-04-24T09:35:52;19.73;;;4.40;;
7773;SDS011;3931;42.260;23.116;2023-04-24T09:38:19;10.93;;;4.60;;
7773;SDS011;3931;42.260;23.116;2023-04-24T09:40:45;9.10;;;3.50;;
7773;SDS011;3931;42.260;23.116;2023-04-24T09:43:11;8.47;;;3.53;;
7773;SDS011;3931;42.260;23.116;2023-04-24T09:45:37;16.07;;;4.30;;
7773;SDS011;3931;42.260;23.116;2023-04-24T09:48:04;6.97;;;3.57;;
7773;SDS011;3931;42.260;23.116;2023-04-24T09:50:31;12.77;;;3.33;;
7773;SDS011;3931;42.260;23.116;2023-04-24T09:52:58;5.90;;;3.33;;
7773;SDS011;3931;42.260;23.116;2023-04-24T09:55:24;8.23;;;3.53;;
7773;SDS011;3931;42.260;23.116;2023-04-24T09:57:50;6.50;;;3.17;;
7773;SDS011;3931;42.260;23.116;2023-04-24T10:00:21;13.83;;;3.23;;
7773;SDS011;3931;42.260;23.116;2023-04-24T10:02:51;17.87;;;4.30;;
7773;SDS011;3931;42.260;23.116;2023-04-24T10:05:17;25.07;;;4.40;;
7773;SDS011;3931;42.260;23.116;2023-04-24T10:07:43;8.90;;;3.53;;
7773;SDS011;3931;42.260;23.116;2023-04-24T10:10:09;12.07;;;4.03;;
7773;SDS011;3931;42.260;23.116;2023-04-24T10:12:36;13.07;;;4.10;;
7773;SDS011;3931;42.260;23.116;2023-04-24T10:15:02;9.67;;;3.33;;
7773;SDS011;3931;42.260;23.116;2023-04-24T10:17:30;4.90;;;3.13;;
7773;SDS011;3931;42.260;23.116;2023-04-24T10:19:56;27.37;;;4.27;;
7773;SDS011;3931;42.260;23.116;2023-04-24T10:22:22;5.60;;;4.00;;
7773;SDS011;3931;42.260;23.116;2023-04-24T10:24:49;32.50;;;4.67;;
7773;SDS011;3931;42.260;23.116;2023-04-24T10:27:15;7.90;;;3.50;;
7773;SDS011;3931;42.260;23.116;2023-04-24T10:29:42;4.30;;;3.33;;
7773;SDS011;3931;42.260;23.116;2023-04-24T10:32:09;5.80;;;3.50;;
7773;SDS011;3931;42.260;23.116;2023-04-24T10:34:35;12.07;;;3.70;;
7773;SDS011;3931;42.260;23.116;2023-04-24T10:37:01;7.23;;;2.90;;
7773;SDS011;3931;42.260;23.116;2023-04-24T10:39:28;8.57;;;3.37;;
7773;SDS011;3931;42.260;23.116;2023-04-24T10:41:55;8.27;;;3.53;;
7773;SDS011;3931;42.260;23.116;2023-04-24T10:44:22;5.13;;;3.50;;
7773;SDS011;3931;42.260;23.116;2023-04-24T10:46:52;14.13;;;3.90;;
7773;SDS011;3931;42.260;23.116;2023-04-24T10:49:19;11.40;;;4.13;;
7773;SDS011;3931;42.260;23.116;2023-04-24T10:51:53;4.67;;;3.30;;
7773;SDS011;3931;42.260;23.116;2023-04-24T10:54:22;5.17;;;3.70;;
7773;SDS011;3931;42.260;23.116;2023-04-24T10:56:49;7.23;;;4.00;;
7773;SDS011;3931;42.260;23.116;2023-04-24T10:59:23;17.70;;;3.83;;
7773;SDS011;3931;42.260;23.116;2023-04-24T11:01:53;8.20;;;3.10;;
7773;SDS011;3931;42.260;23.116;2023-04-24T11:04:28;7.37;;;3.87;;
7773;SDS011;3931;42.260;23.116;2023-04-24T11:06:54;8.03;;;3.60;;
7773;SDS011;3931;42.260;23.116;2023-04-24T11:09:20;18.43;;;4.30;;
7773;SDS011;3931;42.260;23.116;2023-04-24T11:11:46;5.30;;;3.33;;
7773;SDS011;3931;42.260;23.116;2023-04-24T11:14:13;3.33;;;3.03;;
7773;SDS011;3931;42.260;23.116;2023-04-24T11:16:43;8.70;;;3.10;;
7773;SDS011;3931;42.260;23.116;2023-04-24T11:19:17;6.03;;;3.20;;
7773;SDS011;3931;42.260;23.116;2023-04-24T11:21:44;3.73;;;3.33;;
7773;SDS011;3931;42.260;23.116;2023-04-24T11:24:23;12.03;;;3.53;;
7773;SDS011;3931;42.260;23.116;2023-04-24T11:26:50;6.33;;;2.77;;
7773;SDS011;3931;42.260;23.116;2023-04-24T11:29:16;17.27;;;3.50;;
7773;SDS011;3931;42.260;23.116;2023-04-24T11:31:44;9.33;;;3.70;;
7773;SDS011;3931;42.260;23.116;2023-04-24T11:34:15;10.87;;;3.33;;
7773;SDS011;3931;42.260;23.116;2023-04-24T11:36:42;4.57;;;3.20;;
7773;SDS011;3931;42.260;23.116;2023-04-24T11:39:08;5.10;;;3.43;;
7773;SDS011;3931;42.260;23.116;2023-04-24T11:41:35;11.53;;;3.80;;
7773;SDS011;3931;42.260;23.116;2023-04-24T11:44:01;11.90;;;3.37;;
7773;SDS011;3931;42.260;23.116;2023-04-24T11:46:28;9.50;;;3.63;;
7773;SDS011;3931;42.260;23.116;2023-04-24T11:48:55;12.60;;;3.77;;
7773;SDS011;3931;42.260;23.116;2023-04-24T11:51:22;4.60;;;3.10;;
7773;SDS011;3931;42.260;23.116;2023-04-24T11:53:48;8.10;;;3.53;;
7773;SDS011;3931;42.260;23.116;2023-04-24T11:56:16;6.17;;;3.30;;
7773;SDS011;3931;42.260;23.116;2023-04-24T11:58:44;5.13;;;3.30;;
7773;SDS011;3931;42.260;23.116;2023-04-24T12:01:10;4.83;;;3.50;;
7773;SDS011;3931;42.260;23.116;2023-04-24T12:03:35;12.90;;;3.50;;
7773;SDS011;3931;42.260;23.116;2023-04-24T12:06:04;5.67;;;3.17;;
7773;SDS011;3931;42.260;23.116;2023-04-24T12:08:31;4.70;;;3.57;;
7773;SDS011;3931;42.260;23.116;2023-04-24T12:10:57;5.07;;;3.40;;
7773;SDS011;3931;42.260;23.116;2023-04-24T12:13:25;5.47;;;3.20;;
7773;SDS011;3931;42.260;23.116;2023-04-24T12:15:51;5.33;;;3.20;;
7773;SDS011;3931;42.260;23.116;2023-04-24T12:18:16;15.70;;;3.30;;
7773;SDS011;3931;42.260;23.116;2023-04-24T12:20:42;16.23;;;3.70;;
7773;SDS011;3931;42.260;23.116;2023-04-24T12:23:08;5.37;;;3.40;;
7773;SDS011;3931;42.260;23.116;2023-04-24T12:25:34;10.00;;;3.60;;
7773;SDS011;3931;42.260;23.116;2023-04-24T12:28:08;5.37;;;3.07;;
7773;SDS011;3931;42.260;23.116;2023-04-24T12:30:40;9.43;;;3.50;;
7773;SDS011;3931;42.260;23.116;2023-04-24T12:33:06;6.90;;;3.73;;
7773;SDS011;3931;42.260;23.116;2023-04-24T12:35:32;4.50;;;3.30;;
7773;SDS011;3931;42.260;23.116;2023-04-24T12:38:04;10.20;;;3.30;;
7773;SDS011;3931;42.260;23.116;2023-04-24T12:40:30;3.67;;;2.93;;
7773;SDS011;3931;42.260;23.116;2023-04-24T12:42:57;5.40;;;3.03;;
7773;SDS011;3931;42.260;23.116;2023-04-24T12:45:23;7.33;;;3.03;;
7773;SDS011;3931;42.260;23.116;2023-04-24T12:47:50;6.57;;;3.67;;
7773;SDS011;3931;42.260;23.116;2023-04-24T12:50:16;4.53;;;3.73;;
7773;SDS011;3931;42.260;23.116;2023-04-24T12:52:42;28.03;;;3.70;;
7773;SDS011;3931;42.260;23.116;2023-04-24T12:55:08;8.30;;;3.37;;
7773;SDS011;3931;42.260;23.116;2023-04-24T12:57:34;10.67;;;3.47;;
7773;SDS011;3931;42.260;23.116;2023-04-24T13:00:01;16.57;;;3.80;;
7773;SDS011;3931;42.260;23.116;2023-04-24T13:02:27;4.00;;;2.83;;
7773;SDS011;3931;42.260;23.116;2023-04-24T13:04:54;26.20;;;4.63;;
7773;SDS011;3931;42.260;23.116;2023-04-24T13:07:20;4.70;;;2.73;;
7773;SDS011;3931;42.260;23.116;2023-04-24T13:09:47;4.43;;;3.13;;
7773;SDS011;3931;42.260;23.116;2023-04-24T13:12:13;8.17;;;4.40;;
7773;SDS011;3931;42.260;23.116;2023-04-24T13:14:38;16.00;;;4.00;;
7773;SDS011;3931;42.260;23.116;2023-04-24T13:17:05;4.80;;;3.50;;
7773;SDS011;3931;42.260;23.116;2023-04-24T13:19:35;22.60;;;4.10;;
7773;SDS011;3931;42.260;23.116;2023-04-24T13:22:01;18.00;;;3.27;;
7773;SDS011;3931;42.260;23.116;2023-04-24T13:24:27;5.60;;;2.90;;
7773;SDS011;3931;42.260;23.116;2023-04-24T13:26:53;13.57;;;3.40;;
7773;SDS011;3931;42.260;23.116;2023-04-24T13:29:18;21.13;;;3.30;;
7773;SDS011;3931;42.260;23.116;2023-04-24T13:31:45;11.53;;;3.47;;
7773;SDS011;3931;42.260;23.116;2023-04-24T13:34:12;16.00;;;3.53;;
7773;SDS011;3931;42.260;23.116;2023-04-24T13:36:38;6.67;;;3.40;;
7773;SDS011;3931;42.260;23.116;2023-04-24T13:39:04;4.77;;;3.63;;
7773;SDS011;3931;42.260;23.116;2023-04-24T13:41:30;5.80;;;3.80;;
7773;SDS011;3931;42.260;23.116;2023-04-24T13:43:56;70.67;;;8.60;;
7773;SDS011;3931;42.260;23.116;2023-04-24T13:46:22;10.67;;;3.43;;
7773;SDS011;3931;42.260;23.116;2023-04-24T13:48:47;19.83;;;3.93;;
7773;SDS011;3931;42.260;23.116;2023-04-24T13:51:14;13.67;;;4.37;;
7773;SDS011;3931;42.260;23.116;2023-04-24T13:53:40;19.03;;;4.30;;
7773;SDS011;3931;42.260;23.116;2023-04-24T13:56:06;11.80;;;4.23;;
7773;SDS011;3931;42.260;23.116;2023-04-24T13:58:31;6.30;;;3.00;;
7773;SDS011;3931;42.260;23.116;2023-04-24T14:00:57;5.13;;;2.67;;
7773;SDS011;3931;42.260;23.116;2023-04-24T14:03:23;4.20;;;2.97;;
7773;SDS011;3931;42.260;23.116;2023-04-24T14:05:49;58.83;;;7.57;;
7773;SDS011;3931;42.260;23.116;2023-04-24T14:08:15;14.90;;;4.00;;
7773;SDS011;3931;42.260;23.116;2023-04-24T14:10:42;5.27;;;3.77;;
7773;SDS011;3931;42.260;23.116;2023-04-24T14:13:08;8.43;;;3.00;;
7773;SDS011;3931;42.260;23.116;2023-04-24T14:15:35;11.70;;;3.30;;
7773;SDS011;3931;42.260;23.116;2023-04-24T14:18:00;17.80;;;4.07;;
7773;SDS011;3931;42.260;23.116;2023-04-24T14:20:26;7.40;;;3.33;;
7773;SDS011;3931;42.260;23.116;2023-04-24T14:22:52;11.77;;;3.67;;
7773;SDS011;3931;42.260;23.116;2023-04-24T14:25:19;4.43;;;3.90;;
7773;SDS011;3931;42.260;23.116;2023-04-24T14:27:44;10.30;;;3.67;;
7773;SDS011;3931;42.260;23.116;2023-04-24T14:30:12;6.53;;;3.60;;
7773;SDS011;3931;42.260;23.116;2023-04-24T14:32:38;7.10;;;3.50;;
7773;SDS011;3931;42.260;23.116;2023-04-24T14:35:05;12.70;;;4.00;;
7773;SDS011;3931;42.260;23.116;2023-04-24T14:37:31;4.70;;;3.57;;
7773;SDS011;3931;42.260;23.116;2023-04-24T14:39:57;6.47;;;3.80;;
7773;SDS011;3931;42.260;23.116;2023-04-24T14:42:23;6.57;;;3.20;;